createdAt,value
2023-04-12T00:00:35.322Z,7.30
2023-04-12T00:03:22.483Z,7.40
2023-04-12T00:06:10.454Z,7.40
2023-04-12T00:08:57.140Z,7.40
2023-04-12T00:11:44.020Z,7.50
2023-04-12T00:14:31.189Z,7.50
2023-04-12T00:17:19.448Z,7.50
2023-04-12T00:20:12.117Z,7.70
2023-04-12T00:22:58.996Z,7.70
2023-04-12T00:25:45.877Z,7.70
2023-04-12T00:28:32.700Z,7.70
2023-04-12T00:31:19.561Z,7.70
2023-04-12T00:34:06.389Z,7.70
2023-04-12T00:36:53.220Z,7.60
2023-04-12T00:39:40.147Z,7.50
2023-04-12T00:42:27.697Z,7.40
2023-04-12T00:45:14.802Z,7.40
2023-04-12T00:48:01.907Z,7.40
2023-04-12T00:50:48.974Z,7.40
2023-04-12T00:53:36.395Z,7.40
2023-04-12T00:56:27.416Z,7.30
2023-04-12T00:59:14.452Z,7.30
2023-04-12T01:02:15.050Z,7.30
2023-04-12T01:05:02.837Z,7.30
2023-04-12T01:08:18.614Z,7.30
2023-04-12T01:11:11.506Z,7.30
2023-04-12T01:14:17.172Z,7.30
2023-04-12T01:17:07.362Z,7.20
2023-04-12T01:20:12.262Z,7.30
2023-04-12T01:23:26.482Z,7.30
2023-04-12T01:26:48.977Z,7.40
2023-04-12T01:29:36.188Z,7.30
2023-04-12T01:32:23.947Z,7.30
2023-04-12T01:35:11.682Z,7.30
2023-04-12T01:37:59.545Z,7.20
2023-04-12T01:40:46.245Z,7.10
2023-04-12T01:43:33.132Z,7.10
2023-04-12T01:46:23.305Z,7.10
2023-04-12T01:49:13.000Z,7.10
2023-04-12T01:52:09.635Z,7.20
2023-04-12T01:54:58.949Z,7.20
2023-04-12T01:57:47.122Z,7.10
2023-04-12T02:00:37.080Z,7.00
2023-04-12T02:03:25.608Z,6.80
2023-04-12T02:06:13.085Z,6.80
2023-04-12T02:09:07.902Z,6.70
2023-04-12T02:11:54.790Z,6.60
2023-04-12T02:14:41.680Z,6.70
2023-04-12T02:17:29.873Z,6.70
2023-04-12T02:20:18.037Z,6.70
2023-04-12T02:23:04.888Z,6.90
2023-04-12T02:25:51.660Z,6.90
2023-04-12T02:28:39.488Z,7.00
2023-04-12T02:31:26.189Z,7.00
2023-04-12T02:34:13.455Z,7.10
2023-04-12T02:37:00.285Z,7.10
2023-04-12T02:39:47.091Z,7.30
2023-04-12T02:42:34.338Z,7.30
2023-04-12T02:45:21.296Z,7.20
2023-04-12T02:48:08.207Z,7.20
2023-04-12T02:50:55.092Z,7.10
2023-04-12T02:53:42.148Z,7.20
2023-04-12T02:56:29.942Z,7.20
2023-04-12T02:59:16.759Z,7.10
2023-04-12T03:02:03.732Z,7.20
2023-04-12T03:04:55.000Z,7.30
2023-04-12T03:07:42.364Z,7.50
2023-04-12T03:10:29.332Z,7.50
2023-04-12T03:13:16.277Z,7.40
2023-04-12T03:16:22.895Z,7.40
2023-04-12T03:19:10.051Z,7.40
2023-04-12T03:21:57.133Z,7.40
2023-04-12T03:24:46.533Z,7.40
2023-04-12T03:27:33.324Z,7.40
2023-04-12T03:30:20.143Z,7.30
2023-04-12T03:33:07.123Z,7.40
2023-04-12T03:35:54.129Z,7.50
2023-04-12T03:38:40.953Z,7.50
2023-04-12T03:41:29.066Z,7.60
2023-04-12T03:44:15.997Z,7.50
2023-04-12T03:47:02.973Z,7.50
2023-04-12T03:50:06.089Z,7.50
2023-04-12T03:52:56.582Z,7.50
2023-04-12T03:55:43.486Z,7.50
2023-04-12T03:58:30.450Z,7.50
2023-04-12T04:01:18.072Z,7.50
2023-04-12T04:04:05.474Z,7.40
2023-04-12T04:06:52.828Z,7.40
2023-04-12T04:09:39.807Z,7.50
2023-04-12T04:12:28.057Z,7.50
2023-04-12T04:15:15.607Z,7.50
2023-04-12T04:18:02.670Z,7.50
2023-04-12T04:20:49.545Z,7.60
2023-04-12T04:23:39.277Z,7.60
2023-04-12T04:26:32.392Z,7.70
2023-04-12T04:29:19.197Z,7.70
2023-04-12T04:32:07.627Z,7.70
2023-04-12T04:34:59.856Z,7.80
2023-04-12T04:37:46.920Z,7.90
2023-04-12T04:40:33.756Z,7.90
2023-04-12T04:43:20.839Z,7.80
2023-04-12T04:46:07.809Z,7.80
2023-04-12T04:48:55.461Z,7.90
2023-04-12T04:51:42.254Z,7.80
2023-04-12T04:54:29.076Z,7.70
2023-04-12T04:57:15.967Z,7.60
2023-04-12T05:00:11.233Z,7.70
2023-04-12T05:02:58.230Z,7.80
2023-04-12T05:05:48.122Z,7.80
2023-04-12T05:08:34.983Z,7.80
2023-04-12T05:11:21.783Z,7.70
2023-04-12T05:14:09.373Z,7.80
2023-04-12T05:16:57.866Z,7.80
2023-04-12T05:19:44.903Z,7.70
2023-04-12T05:22:32.689Z,7.60
2023-04-12T05:25:20.999Z,7.60
2023-04-12T05:28:14.110Z,7.40
2023-04-12T05:31:01.055Z,7.30
2023-04-12T05:33:49.599Z,7.30
2023-04-12T05:36:36.458Z,7.40
2023-04-12T05:39:23.396Z,7.40
2023-04-12T05:42:10.349Z,7.40
2023-04-12T05:44:57.255Z,7.40
2023-04-12T05:47:44.104Z,7.40
2023-04-12T05:50:31.070Z,7.30
2023-04-12T05:53:17.948Z,7.30
2023-04-12T05:56:05.083Z,7.20
2023-04-12T05:58:52.326Z,7.30
2023-04-12T06:01:44.699Z,7.30
2023-04-12T06:04:48.853Z,7.20
2023-04-12T06:07:44.679Z,7.20
2023-04-12T06:10:31.497Z,7.20
2023-04-12T06:13:18.344Z,7.20
2023-04-12T06:16:06.290Z,7.20
2023-04-12T06:18:53.216Z,7.20
2023-04-12T06:21:40.079Z,7.10
2023-04-12T06:24:27.286Z,7.20
2023-04-12T06:27:14.113Z,7.20
2023-04-12T06:30:00.940Z,7.30
2023-04-12T06:32:47.870Z,7.40
2023-04-12T06:35:34.884Z,7.30
2023-04-12T06:38:21.882Z,7.40
2023-04-12T06:41:08.764Z,7.60
2023-04-12T06:43:55.622Z,7.70
2023-04-12T06:46:42.979Z,7.90
2023-04-12T06:49:29.984Z,8.00
2023-04-12T06:52:16.912Z,8.20
2023-04-12T06:55:03.939Z,8.30
2023-04-12T06:57:52.236Z,8.50
2023-04-12T07:00:39.259Z,8.40
2023-04-12T07:03:28.461Z,8.40
2023-04-12T07:06:24.905Z,8.30
2023-04-12T07:09:12.754Z,8.10
2023-04-12T07:12:01.072Z,8.10
2023-04-12T07:14:47.906Z,8.20
2023-04-12T07:17:34.969Z,8.10
2023-04-12T07:20:22.061Z,8.20
2023-04-12T07:23:09.037Z,8.30
2023-04-12T07:26:01.027Z,8.20
2023-04-12T07:28:47.849Z,8.10
2023-04-12T07:31:34.862Z,8.30
2023-04-12T07:34:21.987Z,8.40
2023-04-12T07:37:08.878Z,8.50
2023-04-12T07:39:55.786Z,8.60
2023-04-12T07:42:42.653Z,8.60
2023-04-12T07:45:29.604Z,8.40
2023-04-12T07:48:16.554Z,8.40
2023-04-12T07:51:03.663Z,8.60
2023-04-12T07:53:50.450Z,8.90
2023-04-12T07:56:37.411Z,9.10
2023-04-12T07:59:24.191Z,9.20
2023-04-12T08:02:11.303Z,9.20
2023-04-12T08:04:58.303Z,9.10
2023-04-12T08:07:45.102Z,9.00
2023-04-12T08:10:32.263Z,9.20
2023-04-12T08:13:19.532Z,9.30
2023-04-12T08:16:08.453Z,9.50
2023-04-12T08:18:55.622Z,9.40
2023-04-12T08:21:42.658Z,9.30
2023-04-12T08:24:29.478Z,9.40
2023-04-12T08:27:16.611Z,9.70
2023-04-12T08:30:03.990Z,9.90
2023-04-12T08:32:50.902Z,10.10
2023-04-12T08:35:40.046Z,10.30
2023-04-12T08:38:37.665Z,10.60
2023-04-12T08:41:31.626Z,10.70
2023-04-12T08:44:18.891Z,10.90
2023-04-12T08:47:08.019Z,11.10
2023-04-12T08:49:57.347Z,11.20
2023-04-12T08:52:44.235Z,11.10
2023-04-12T08:55:31.170Z,11.10
2023-04-12T08:58:18.192Z,11.10
2023-04-12T09:01:08.150Z,11.00
2023-04-12T09:03:55.416Z,11.00
2023-04-12T09:06:43.131Z,11.10
2023-04-12T09:09:42.801Z,11.10
2023-04-12T09:12:29.731Z,11.20
2023-04-12T09:15:18.350Z,11.40
2023-04-12T09:18:17.108Z,11.50
2023-04-12T09:21:08.749Z,11.60
2023-04-12T09:24:14.517Z,11.60
2023-04-12T09:27:04.005Z,11.60
2023-04-12T09:29:54.504Z,11.70
2023-04-12T09:32:41.481Z,11.70
2023-04-12T09:35:37.876Z,11.70
2023-04-12T09:38:24.837Z,11.60
2023-04-12T09:41:21.478Z,11.60
2023-04-12T09:44:31.696Z,11.60
2023-04-12T09:47:18.557Z,11.70
2023-04-12T09:50:08.001Z,11.80
2023-04-12T09:52:56.516Z,11.80
2023-04-12T09:55:44.140Z,11.90
2023-04-12T09:58:33.245Z,12.00
2023-04-12T10:01:22.938Z,12.00
2023-04-12T10:04:10.606Z,11.90
2023-04-12T10:07:01.222Z,11.90
2023-04-12T10:09:48.312Z,11.80
2023-04-12T10:12:39.778Z,11.70
2023-04-12T10:15:27.115Z,11.70
2023-04-12T10:18:15.280Z,11.90
2023-04-12T10:21:02.367Z,12.10
2023-04-12T10:23:49.446Z,12.10
2023-04-12T10:26:41.095Z,12.10
2023-04-12T10:29:36.250Z,12.00
2023-04-12T10:32:24.775Z,11.90
2023-04-12T10:35:12.050Z,11.80
2023-04-12T10:38:04.486Z,11.70
2023-04-12T10:41:20.631Z,11.70
2023-04-12T10:44:29.266Z,11.80
2023-04-12T10:47:16.421Z,11.90
2023-04-12T10:50:26.195Z,11.80
2023-04-12T10:53:13.150Z,11.70
2023-04-12T10:56:00.145Z,11.80
2023-04-12T10:58:49.935Z,12.00
2023-04-12T11:01:39.305Z,12.00
2023-04-12T11:04:27.097Z,11.90
2023-04-12T11:07:14.124Z,11.80
2023-04-12T11:10:01.751Z,11.90
2023-04-12T11:12:57.235Z,11.90
2023-04-12T11:15:44.269Z,11.80
2023-04-12T11:18:34.499Z,11.70
2023-04-12T11:21:22.531Z,11.70
2023-04-12T11:24:09.508Z,11.60
2023-04-12T11:26:57.345Z,11.70
2023-04-12T11:29:44.248Z,11.80
2023-04-12T11:32:31.716Z,11.90
2023-04-12T11:35:22.741Z,11.90
2023-04-12T11:38:11.110Z,12.00
2023-04-12T11:40:58.101Z,12.00
2023-04-12T11:43:46.084Z,12.10
2023-04-12T11:46:35.997Z,12.20
2023-04-12T11:49:23.477Z,12.30
2023-04-12T11:52:10.408Z,12.50
2023-04-12T11:55:05.179Z,12.60
2023-04-12T11:57:56.020Z,12.60
2023-04-12T12:00:45.543Z,13.00
2023-04-12T12:03:32.535Z,13.70
2023-04-12T12:06:20.006Z,14.00
2023-04-12T12:09:07.552Z,15.00
2023-04-12T12:11:55.107Z,15.70
2023-04-12T12:14:45.326Z,16.00
2023-04-12T12:17:38.013Z,16.30
2023-04-12T12:20:25.344Z,16.90
2023-04-12T12:23:12.177Z,17.00
2023-04-12T12:26:17.749Z,16.70
2023-04-12T12:29:06.138Z,16.70
2023-04-12T12:31:53.469Z,16.70
2023-04-12T12:34:41.862Z,16.80
2023-04-12T12:37:30.599Z,16.80
2023-04-12T12:40:17.861Z,16.60
2023-04-12T12:43:06.963Z,16.60
2023-04-12T12:45:53.796Z,16.60
2023-04-12T12:48:44.609Z,16.40
2023-04-12T12:51:31.560Z,17.00
2023-04-12T12:54:32.371Z,18.20
2023-04-12T12:57:26.264Z,18.50
2023-04-12T13:00:15.087Z,18.30
2023-04-12T13:03:02.417Z,17.60
2023-04-12T13:05:51.337Z,16.90
2023-04-12T13:08:38.387Z,16.20
2023-04-12T13:11:25.311Z,15.70
2023-04-12T13:14:12.114Z,15.40
2023-04-12T13:16:59.051Z,15.10
2023-04-12T13:19:47.033Z,15.10
2023-04-12T13:22:33.897Z,15.10
2023-04-12T13:25:21.493Z,15.00
2023-04-12T13:28:08.490Z,14.80
2023-04-12T13:30:56.499Z,14.70
2023-04-12T13:33:43.288Z,14.50
2023-04-12T13:36:31.041Z,14.40
2023-04-12T13:39:17.827Z,14.30
2023-04-12T13:42:04.738Z,14.20
2023-04-12T13:44:51.560Z,14.10
2023-04-12T13:47:39.209Z,14.00
2023-04-12T13:50:26.195Z,13.90
2023-04-12T13:53:13.037Z,13.90
2023-04-12T13:55:59.889Z,13.90
2023-04-12T13:58:46.920Z,13.90
2023-04-12T14:01:33.784Z,13.90
2023-04-12T14:04:20.954Z,13.80
2023-04-12T14:07:07.851Z,13.70
2023-04-12T14:09:55.812Z,13.60
2023-04-12T14:12:42.673Z,13.40
2023-04-12T14:15:29.475Z,13.40
2023-04-12T14:18:16.331Z,13.30
2023-04-12T14:21:04.073Z,13.20
2023-04-12T14:23:50.895Z,13.10
2023-04-12T14:26:39.914Z,12.90
2023-04-12T14:29:27.196Z,12.80
2023-04-12T14:32:14.118Z,12.70
2023-04-12T14:35:01.149Z,12.60
2023-04-12T14:37:48.201Z,12.50
2023-04-12T14:40:35.820Z,12.40
2023-04-12T14:43:22.728Z,12.20
2023-04-12T14:46:11.152Z,12.20
2023-04-12T14:49:01.028Z,12.40
2023-04-12T14:51:47.957Z,12.40
2023-04-12T14:54:34.794Z,12.40
2023-04-12T14:57:21.592Z,12.30
2023-04-12T15:00:13.665Z,12.30
2023-04-12T15:03:00.980Z,12.20
2023-04-12T15:05:48.206Z,12.30
2023-04-12T15:08:41.450Z,12.40
2023-04-12T15:11:28.404Z,12.50
2023-04-12T15:14:20.381Z,12.50
2023-04-12T15:17:08.391Z,12.60
2023-04-12T15:19:55.727Z,12.60
2023-04-12T15:22:43.388Z,12.60
2023-04-12T15:25:30.988Z,12.70
2023-04-12T15:28:17.811Z,12.70
2023-04-12T15:31:05.063Z,12.70
2023-04-12T15:33:51.988Z,12.70
2023-04-12T15:36:40.822Z,12.60
2023-04-12T15:39:27.761Z,12.50
2023-04-12T15:42:15.544Z,12.40
2023-04-12T15:45:02.296Z,12.40
2023-04-12T15:47:49.208Z,12.30
2023-04-12T15:50:36.203Z,12.20
2023-04-12T15:53:25.014Z,12.20
2023-04-12T15:56:14.367Z,12.10
2023-04-12T15:59:01.882Z,12.10
2023-04-12T16:01:48.898Z,12.00
2023-04-12T16:04:37.411Z,11.90
2023-04-12T16:07:24.385Z,11.80
2023-04-12T16:10:11.243Z,11.80
2023-04-12T16:12:58.015Z,11.80
2023-04-12T16:15:45.674Z,11.70
2023-04-12T16:18:32.586Z,11.70
2023-04-12T16:21:21.143Z,11.70
2023-04-12T16:24:08.137Z,11.60
2023-04-12T16:26:55.003Z,11.60
2023-04-12T16:29:41.836Z,11.70
2023-04-12T16:32:28.944Z,11.60
2023-04-12T16:35:16.510Z,11.60
2023-04-12T16:38:04.468Z,11.60
2023-04-12T16:40:51.706Z,11.50
2023-04-12T16:43:38.496Z,11.40
2023-04-12T16:46:25.340Z,11.30
2023-04-12T16:49:12.360Z,11.20
2023-04-12T16:51:59.830Z,11.10
2023-04-12T16:54:48.089Z,11.00
2023-04-12T16:57:34.923Z,10.90
2023-04-12T17:00:26.993Z,10.90
2023-04-12T17:03:14.092Z,10.90
2023-04-12T17:06:01.008Z,10.90
2023-04-12T17:08:49.028Z,10.70
2023-04-12T17:11:37.011Z,10.70
2023-04-12T17:14:23.821Z,10.60
2023-04-12T17:17:10.632Z,10.50
2023-04-12T17:19:57.447Z,10.50
2023-04-12T17:22:45.142Z,10.40
2023-04-12T17:25:32.331Z,10.30
2023-04-12T17:28:19.605Z,10.20
2023-04-12T17:31:08.877Z,10.20
2023-04-12T17:33:56.217Z,10.10
2023-04-12T17:36:43.304Z,10.10
2023-04-12T17:39:30.204Z,10.00
2023-04-12T17:42:18.554Z,10.00
2023-04-12T17:45:06.577Z,10.10
2023-04-12T17:47:54.765Z,10.00
2023-04-12T17:50:42.126Z,9.90
2023-04-12T17:53:28.990Z,9.90
2023-04-12T17:56:15.791Z,9.80
2023-04-12T17:59:05.504Z,9.80
2023-04-12T18:01:52.590Z,9.80
2023-04-12T18:04:41.227Z,9.70
2023-04-12T18:07:28.287Z,9.70
2023-04-12T18:10:20.603Z,9.60
2023-04-12T18:13:08.390Z,9.60
2023-04-12T18:15:55.229Z,9.50
2023-04-12T18:18:42.117Z,9.40
2023-04-12T18:21:29.383Z,9.40
2023-04-12T18:24:16.995Z,9.40
2023-04-12T18:27:04.974Z,9.30
2023-04-12T18:29:51.878Z,9.30
2023-04-12T18:32:38.936Z,9.20
2023-04-12T18:35:25.942Z,9.20
2023-04-12T18:38:12.750Z,9.10
2023-04-12T18:41:00.472Z,9.10
2023-04-12T18:43:47.326Z,9.10
2023-04-12T18:46:34.221Z,9.10
2023-04-12T18:49:22.025Z,9.00
2023-04-12T18:52:08.851Z,8.90
2023-04-12T18:54:55.902Z,8.90
2023-04-12T18:57:42.798Z,8.80
2023-04-12T19:00:29.778Z,8.80
2023-04-12T19:03:16.768Z,8.70
2023-04-12T19:06:04.469Z,8.70
2023-04-12T19:08:52.135Z,8.70
2023-04-12T19:11:39.088Z,8.70
2023-04-12T19:14:28.144Z,8.60
2023-04-12T19:17:15.179Z,8.50
2023-04-12T19:20:02.286Z,8.50
2023-04-12T19:22:49.147Z,8.50
2023-04-12T19:25:36.042Z,8.40
2023-04-12T19:28:22.877Z,8.40
2023-04-12T19:31:10.774Z,8.40
2023-04-12T19:33:58.263Z,8.40
2023-04-12T19:36:45.446Z,8.40
2023-04-12T19:39:32.488Z,8.30
2023-04-12T19:42:19.455Z,8.20
2023-04-12T19:45:07.287Z,8.10
2023-04-12T19:47:54.176Z,8.00
2023-04-12T19:50:41.600Z,7.90
2023-04-12T19:53:28.478Z,7.90
2023-04-12T19:56:15.332Z,7.90
2023-04-12T19:59:02.723Z,7.90
2023-04-12T20:01:49.693Z,7.90
2023-04-12T20:04:36.798Z,7.80
2023-04-12T20:07:23.654Z,7.70
2023-04-12T20:10:11.407Z,7.60
2023-04-12T20:12:58.334Z,7.50
2023-04-12T20:15:45.338Z,7.40
2023-04-12T20:18:32.677Z,7.20
2023-04-12T20:21:19.572Z,7.20
2023-04-12T20:24:08.792Z,7.20
2023-04-12T20:26:57.251Z,7.20
2023-04-12T20:29:45.392Z,7.30
2023-04-12T20:32:33.448Z,7.40
2023-04-12T20:35:20.339Z,7.60
2023-04-12T20:38:07.125Z,7.70
2023-04-12T20:40:54.758Z,7.90
2023-04-12T20:43:46.610Z,8.00
2023-04-12T20:46:36.756Z,8.10
2023-04-12T20:49:26.288Z,8.10
2023-04-12T20:52:16.953Z,8.10
2023-04-12T20:55:05.932Z,8.10
2023-04-12T20:57:55.797Z,8.10
2023-04-12T21:00:42.840Z,8.10
2023-04-12T21:03:30.722Z,8.00
2023-04-12T21:06:17.986Z,8.00
2023-04-12T21:09:05.952Z,8.00
2023-04-12T21:11:53.411Z,7.90
2023-04-12T21:14:40.303Z,7.80
2023-04-12T21:17:27.446Z,7.80
2023-04-12T21:20:14.492Z,7.70
2023-04-12T21:23:04.177Z,7.70
2023-04-12T21:25:52.030Z,7.60
2023-04-12T21:28:39.254Z,7.60
2023-04-12T21:31:26.279Z,7.50
2023-04-12T21:34:13.161Z,7.50
2023-04-12T21:37:01.379Z,7.50
2023-04-12T21:39:48.377Z,7.50
2023-04-12T21:42:37.718Z,7.50
2023-04-12T21:45:25.613Z,7.40
2023-04-12T21:48:14.677Z,7.50
2023-04-12T21:51:01.692Z,7.40
2023-04-12T21:53:48.552Z,7.40
2023-04-12T21:56:35.409Z,7.30
2023-04-12T21:59:22.723Z,7.30
2023-04-12T22:02:09.947Z,7.30
2023-04-12T22:04:56.863Z,7.30
2023-04-12T22:07:43.712Z,7.20
2023-04-12T22:10:34.148Z,7.20
2023-04-12T22:13:23.689Z,7.30
2023-04-12T22:16:14.143Z,7.30
2023-04-12T22:19:01.865Z,7.30
2023-04-12T22:21:49.174Z,7.30
2023-04-12T22:24:36.988Z,7.30
2023-04-12T22:27:26.609Z,7.30
2023-04-12T22:30:14.656Z,7.30
2023-04-12T22:33:01.546Z,7.30
2023-04-12T22:35:48.580Z,7.40
2023-04-12T22:38:36.059Z,7.30
2023-04-12T22:41:24.993Z,7.30
2023-04-12T22:44:12.377Z,7.30
2023-04-12T22:46:59.461Z,7.20
2023-04-12T22:49:50.555Z,7.20
2023-04-12T22:52:40.885Z,7.20
2023-04-12T22:55:28.752Z,7.10
2023-04-12T22:58:15.575Z,7.10
2023-04-12T23:01:04.291Z,7.10
2023-04-12T23:03:51.778Z,7.10
2023-04-12T23:06:40.285Z,7.10
2023-04-12T23:09:27.568Z,7.10
2023-04-12T23:12:14.442Z,7.10
2023-04-12T23:15:02.222Z,7.20
2023-04-12T23:17:49.976Z,7.10
2023-04-12T23:20:37.863Z,7.20
2023-04-12T23:23:24.750Z,7.10
2023-04-12T23:26:12.007Z,7.20
2023-04-12T23:28:58.796Z,7.20
2023-04-12T23:31:45.752Z,7.20
2023-04-12T23:34:35.317Z,7.30
2023-04-12T23:37:22.454Z,7.30
2023-04-12T23:40:14.314Z,7.20
2023-04-12T23:43:02.206Z,7.30
2023-04-12T23:45:49.253Z,7.20
2023-04-12T23:48:37.360Z,7.10
2023-04-12T23:51:24.208Z,7.00
2023-04-12T23:54:11.252Z,7.00
2023-04-12T23:56:58.051Z,7.00
2023-04-12T23:59:44.908Z,7.00
